Time;durP1;ratioP1;P1;durP2;ratioP2;P2;SDS_P1;SDS_P2;PMS_P1;PMS_P2;Temp;Humidity;BMP_temperature;BMP_pressure;BME280_temperature;BME280_humidity;BME280_pressure;Samples;Min_cycle;Max_cycle;Signal;HPM_P1;HPM_P2
2023/11/24 00:00:44;;;;;;;0.53;0.53;;;1.70;99.90;;;;;;1907963;75;25255;-90
2023/11/24 00:03:33;;;;;;;3.73;0.70;;;1.70;99.90;;;;;;1902921;75;25254;-90
2023/11/24 00:06:22;;;;;;;1.60;0.57;;;1.60;99.90;;;;;;1904840;75;25822;-90
2023/11/24 00:09:12;;;;;;;0.30;0.30;;;1.60;99.90;;;;;;1902293;73;25612;-90
2023/11/24 00:14:47;;;;;;;0.57;0.57;;;1.60;99.90;;;;;;1962945;72;27043;-90
2023/11/24 00:31:34;;;;;;;0.53;0.53;;;1.60;99.90;;;;;;1939217;73;26385;-90
2023/11/24 00:37:07;;;;;;;2.37;0.60;;;1.50;99.90;;;;;;1912244;74;28069;-89
2023/11/24 00:39:55;;;;;;;0.33;0.33;;;1.50;99.90;;;;;;1875007;75;25279;-89
2023/11/24 00:42:44;;;;;;;0.30;0.30;;;1.40;99.90;;;;;;1875704;75;25230;-89
2023/11/24 00:45:33;;;;;;;0.63;0.63;;;1.40;99.90;;;;;;1876131;76;25843;-89
2023/11/24 00:48:24;;;;;;;0.47;0.47;;;1.40;99.90;;;;;;1864875;77;25260;-89
2023/11/24 00:51:13;;;;;;;0.47;0.47;;;1.30;99.90;;;;;;1848929;76;25254;-89
2023/11/24 00:56:53;;;;;;;0.30;0.30;;;1.30;99.90;;;;;;1943446;72;26974;-90
2023/11/24 00:59:44;;;;;;;0.73;0.60;;;1.30;99.90;;;;;;1916196;73;25326;-90
2023/11/24 01:02:36;;;;;;;1.07;0.63;;;1.30;99.90;;;;;;1920369;73;25317;-90
2023/11/24 01:05:24;;;;;;;0.50;0.50;;;1.20;99.90;;;;;;1923614;73;25595;-90
2023/11/24 01:08:13;;;;;;;0.40;0.40;;;1.20;99.90;;;;;;1917943;73;25198;-90
2023/11/24 01:11:02;;;;;;;0.30;0.30;;;1.20;99.90;;;;;;1920335;73;25274;-89
2023/11/24 01:13:51;;;;;;;2.70;0.93;;;1.20;99.90;;;;;;1922378;73;25345;-90
2023/11/24 01:16:40;;;;;;;0.40;0.40;;;1.20;99.90;;;;;;1926727;73;25241;-90
2023/11/24 01:19:29;;;;;;;0.77;0.60;;;1.20;99.90;;;;;;1917835;73;25298;-90
2023/11/24 01:22:19;;;;;;;0.80;0.63;;;1.30;99.90;;;;;;1932815;73;25792;-90
2023/11/24 01:27:55;;;;;;;2.07;0.67;;;1.30;99.90;;;;;;1945498;72;27525;-89
2023/11/24 01:30:45;;;;;;;0.97;0.70;;;1.30;99.90;;;;;;1930782;73;25217;-89
2023/11/24 01:33:34;;;;;;;1.40;0.80;;;1.30;99.90;;;;;;1943538;72;25306;-89
2023/11/24 01:36:23;;;;;;;0.50;0.50;;;1.20;99.90;;;;;;1933902;73;25503;-89
2023/11/24 01:39:12;;;;;;;0.93;0.53;;;1.30;99.90;;;;;;1942789;72;25233;-89
2023/11/24 01:45:33;;;;;;;0.67;0.60;;;1.20;99.90;;;;;;1951879;72;26995;-90
2023/11/24 01:48:22;;;;;;;1.03;0.60;;;1.20;99.90;;;;;;1918424;73;25182;-90
2023/11/24 01:51:11;;;;;;;0.67;0.50;;;1.20;99.90;;;;;;1921561;73;25283;-90
2023/11/24 01:57:01;;;;;;;0.57;0.50;;;1.20;99.90;;;;;;1940536;72;27108;-90
2023/11/24 02:02:40;;;;;;;0.97;0.40;;;1.10;99.90;;;;;;1948309;72;26897;-89
2023/11/24 02:05:29;;;;;;;0.83;0.30;;;1.00;99.90;;;;;;1923353;73;25204;-89
2023/11/24 02:08:18;;;;;;;1.20;0.80;;;1.10;99.90;;;;;;1953852;72;25228;-89
2023/11/24 02:11:08;;;;;;;0.30;0.30;;;1.10;99.90;;;;;;1926473;73;25264;-89
2023/11/24 02:13:57;;;;;;;0.97;0.50;;;1.10;99.90;;;;;;1955441;72;25214;-89
2023/11/24 02:16:46;;;;;;;0.30;0.30;;;1.10;99.90;;;;;;1945335;72;25216;-89
2023/11/24 02:19:36;;;;;;;0.53;0.40;;;1.10;99.90;;;;;;1949169;72;25333;-89
2023/11/24 02:22:25;;;;;;;0.30;0.30;;;1.10;99.90;;;;;;1908989;72;25222;-89
2023/11/24 02:29:34;;;;;;;0.20;0.20;;;1.10;99.90;;;;;;1994243;71;27050;-90
2023/11/24 02:32:24;;;;;;;0.27;0.23;;;1.10;99.90;;;;;;2016487;69;25266;-90
2023/11/24 02:35:13;;;;;;;1.13;0.50;;;1.00;99.90;;;;;;2016300;69;25282;-88
2023/11/24 02:38:02;;;;;;;0.43;0.43;;;1.00;99.90;;;;;;1966105;72;25205;-90
2023/11/24 02:40:51;;;;;;;0.97;0.40;;;1.00;99.90;;;;;;1976683;72;25147;-90
2023/11/24 02:43:40;;;;;;;0.40;0.40;;;0.90;99.90;;;;;;1900659;74;25342;-90
2023/11/24 02:46:29;;;;;;;1.03;0.50;;;1.00;99.90;;;;;;1947622;72;25648;-90
2023/11/24 02:49:18;;;;;;;0.40;0.40;;;0.90;99.90;;;;;;1924255;73;25177;-90
2023/11/24 02:52:07;;;;;;;1.83;0.57;;;0.80;99.90;;;;;;1948685;72;25227;-90
2023/11/24 02:54:56;;;;;;;0.50;0.50;;;0.70;99.90;;;;;;1945608;72;25769;-90
2023/11/24 02:57:48;;;;;;;0.50;0.50;;;0.70;99.90;;;;;;1947276;72;25366;-90
2023/11/24 03:14:20;;;;;;;1.90;0.70;;;0.70;99.90;;;;;;1916675;74;26426;-89
2023/11/24 03:31:18;;;;;;;0.47;0.47;;;0.70;99.90;;;;;;1892809;75;28270;-91
2023/11/24 03:36:53;;;;;;;0.40;0.40;;;0.70;99.90;;;;;;1945023;72;26974;-90
2023/11/24 03:39:43;;;;;;;0.47;0.47;;;0.70;99.90;;;;;;1923609;73;25204;-90
2023/11/24 03:42:35;;;;;;;5.10;0.40;;;0.70;99.90;;;;;;1920533;73;25287;-90
2023/11/24 03:48:46;;;;;;;1.03;0.60;;;0.60;99.90;;;;;;1946157;73;26364;-91
2023/11/24 03:51:36;;;;;;;0.77;0.40;;;0.60;99.90;;;;;;1968435;71;25789;-90
2023/11/24 03:59:18;;;;;;;1.10;0.40;;;0.60;99.90;;;;;;1977311;71;27383;-90
2023/11/24 04:02:07;;;;;;;0.87;0.60;;;0.60;99.90;;;;;;2004276;70;25748;-90
2023/11/24 04:04:57;;;;;;;0.47;0.40;;;0.60;99.90;;;;;;1995611;70;25218;-90
2023/11/24 04:07:46;;;;;;;1.90;0.50;;;0.60;99.90;;;;;;2003805;70;25727;-91
2023/11/24 04:10:35;;;;;;;0.40;0.40;;;0.70;99.90;;;;;;1998556;71;25187;-90
2023/11/24 04:13:23;;;;;;;0.50;0.50;;;0.70;99.90;;;;;;1995339;71;25211;-90
2023/11/24 04:16:14;;;;;;;3.37;0.40;;;0.70;99.90;;;;;;2000605;70;25706;-90
2023/11/24 04:19:05;;;;;;;0.67;0.53;;;0.80;99.90;;;;;;1994404;70;25631;-90
2023/11/24 05:02:02;;;;;;;0.40;0.40;;;0.30;99.90;;;;;;1923600;72;26372;-90
2023/11/24 05:08:14;;;;;;;1.23;0.60;;;0.40;99.90;;;;;;1982229;71;26982;-89
2023/11/24 05:11:03;;;;;;;1.10;0.30;;;0.30;99.90;;;;;;1954524;72;25634;-89
2023/11/24 05:13:51;;;;;;;0.40;0.40;;;0.20;99.90;;;;;;2046950;69;25134;-91
2023/11/24 05:16:40;;;;;;;0.30;0.30;;;0.20;99.90;;;;;;2032404;69;25222;-91
2023/11/24 05:19:29;;;;;;;1.03;0.50;;;0.30;99.90;;;;;;2033749;69;25275;-91
2023/11/24 05:22:17;;;;;;;0.43;0.43;;;0.30;99.90;;;;;;2041787;69;25606;-91
2023/11/24 05:25:07;;;;;;;0.60;0.50;;;0.30;99.90;;;;;;2032954;69;25207;-91
2023/11/24 05:27:56;;;;;;;0.50;0.40;;;0.30;99.90;;;;;;2048166;69;25224;-91
2023/11/24 05:33:30;;;;;;;0.47;0.43;;;0.30;99.90;;;;;;1926234;74;28091;-90
2023/11/24 05:36:19;;;;;;;0.50;0.50;;;0.30;99.90;;;;;;1901263;75;25269;-90
2023/11/24 05:39:09;;;;;;;1.20;0.40;;;0.30;99.90;;;;;;1909450;75;25201;-90
2023/11/24 05:41:58;;;;;;;2.43;0.60;;;0.40;99.90;;;;;;1889502;75;25268;-90
2023/11/24 05:45:30;;;;;;;2.10;0.50;;;0.30;99.90;;;;;;1892220;74;25228;-90
2023/11/24 05:48:19;;;;;;;1.07;0.53;;;0.30;99.90;;;;;;1898423;75;25250;-90
2023/11/24 05:51:08;;;;;;;1.13;0.43;;;0.20;99.90;;;;;;1902469;75;25289;-90
2023/11/24 05:53:59;;;;;;;1.20;0.50;;;0.20;99.90;;;;;;1910348;74;25219;-90
2023/11/24 05:56:47;;;;;;;3.97;0.40;;;0.10;99.90;;;;;;1912087;75;25176;-90
2023/11/24 05:59:36;;;;;;;0.77;0.53;;;0.00;99.90;;;;;;1893666;74;25743;-89
2023/11/24 06:02:25;;;;;;;3.50;0.67;;;0.00;99.90;;;;;;1894489;75;25664;-89
2023/11/24 06:19:25;;;;;;;1.10;0.50;;;-0.20;99.90;;;;;;1883427;74;27025;-89
2023/11/24 06:22:14;;;;;;;0.40;0.40;;;-0.10;99.90;;;;;;1866241;76;25745;-89
2023/11/24 06:25:03;;;;;;;1.33;0.43;;;-0.10;99.90;;;;;;1866268;76;25781;-91
2023/11/24 06:30:42;;;;;;;3.13;0.57;;;-0.10;99.90;;;;;;1947960;72;27480;-91
2023/11/24 06:33:31;;;;;;;0.77;0.50;;;-0.10;99.90;;;;;;1935919;73;25608;-91
2023/11/24 06:36:20;;;;;;;2.30;0.70;;;-0.20;99.90;;;;;;1922350;73;25698;-91
2023/11/24 06:39:11;;;;;;;5.03;0.83;;;-0.20;99.90;;;;;;1936258;73;25699;-90
2023/11/24 06:42:00;;;;;;;4.33;0.50;;;-0.30;99.90;;;;;;1911882;75;25283;-91
2023/11/24 06:44:48;;;;;;;3.63;0.70;;;-0.40;99.90;;;;;;1896156;75;25155;-90
2023/11/24 06:47:39;;;;;;;2.40;0.90;;;-0.30;99.90;;;;;;1889953;75;25751;-90
2023/11/24 06:50:27;;;;;;;1.90;0.93;;;-0.40;99.90;;;;;;1901997;75;25180;-90
2023/11/24 06:54:13;;;;;;;3.30;0.80;;;-0.40;99.90;;;;;;1896625;75;25236;-90
2023/11/24 06:57:02;;;;;;;3.93;0.80;;;-0.50;99.90;;;;;;1892542;75;25258;-90
2023/11/24 06:59:50;;;;;;;1.30;0.70;;;-0.50;99.90;;;;;;1897779;75;25262;-90
2023/11/24 07:02:39;;;;;;;5.73;0.57;;;-0.50;99.90;;;;;;1895442;75;25690;-89
2023/11/24 07:05:29;;;;;;;4.30;0.80;;;-0.60;99.90;;;;;;1905047;75;25250;-90
2023/11/24 07:08:17;;;;;;;3.20;0.53;;;-0.60;99.90;;;;;;1894885;75;25360;-90
2023/11/24 07:24:38;;;;;;;0.90;0.60;;;-0.60;99.90;;;;;;1942742;72;27083;-90
2023/11/24 07:43:13;;;;;;;2.43;0.60;;;-1.40;99.90;;;;;;1915729;72;27565;-91
2023/11/24 07:48:47;;;;;;;1.33;0.60;;;-1.40;99.90;;;;;;1950250;72;27572;-91
2023/11/24 07:51:36;;;;;;;0.40;0.40;;;-1.40;99.90;;;;;;1919540;73;25154;-90
2023/11/24 07:54:25;;;;;;;3.43;0.87;;;-1.40;99.90;;;;;;1916350;75;25291;-90
2023/11/24 07:57:14;;;;;;;2.10;0.63;;;-1.40;99.90;;;;;;1921608;73;25260;-90
2023/11/24 08:00:04;;;;;;;3.70;0.80;;;-1.50;99.90;;;;;;1927196;73;25217;-90
2023/11/24 08:02:53;;;;;;;2.70;0.60;;;-1.50;99.90;;;;;;1938667;73;25225;-90
2023/11/24 08:05:42;;;;;;;1.87;0.67;;;-1.50;99.90;;;;;;1930173;73;25694;-90
2023/11/24 08:08:33;;;;;;;1.70;0.60;;;-1.50;99.90;;;;;;1937534;73;25177;-91
2023/11/24 08:11:23;;;;;;;1.57;0.73;;;-1.40;99.90;;;;;;1913649;73;25275;-90
2023/11/24 08:14:12;;;;;;;5.60;1.60;;;-1.40;99.90;;;;;;1917746;73;25723;-91
2023/11/24 08:17:01;;;;;;;2.90;1.10;;;-1.40;99.90;;;;;;1927059;73;25217;-90
2023/11/24 08:19:49;;;;;;;1.00;0.50;;;-1.30;99.90;;;;;;1927804;73;25298;-91
2023/11/24 08:22:38;;;;;;;2.00;0.50;;;-1.20;99.90;;;;;;1928576;73;25240;-90
2023/11/24 08:28:22;;;;;;;0.60;0.60;;;-1.00;99.90;;;;;;1961623;71;26939;-90
2023/11/24 09:11:49;;;;;;;3.10;0.60;;;-0.50;99.90;;;;;;1892965;75;27125;-89
2023/11/24 09:19:21;;;;;;;1.23;0.90;;;-0.40;99.90;;;;;;1980560;71;26363;-90
2023/11/24 09:25:31;;;;;;;1.03;0.60;;;-0.30;99.90;;;;;;1977108;71;26797;-91
2023/11/24 09:28:20;;;;;;;7.63;0.60;;;-0.20;99.90;;;;;;1967359;72;25232;-91
2023/11/24 09:31:12;;;;;;;0.70;0.60;;;-0.20;99.90;;;;;;2036866;69;25195;-90
2023/11/24 09:33:59;;;;;;;0.40;0.40;;;-0.20;99.90;;;;;;2067219;69;25298;-90
2023/11/24 09:36:47;;;;;;;1.10;0.60;;;-0.20;99.90;;;;;;2060731;69;25259;-88
2023/11/24 09:39:36;;;;;;;2.77;0.90;;;-0.20;99.90;;;;;;2041157;69;25131;-90
2023/11/24 09:42:26;;;;;;;0.50;0.50;;;-0.20;99.90;;;;;;2064819;69;25178;-90
2023/11/24 09:48:36;;;;;;;0.97;0.57;;;-0.10;99.90;;;;;;2041222;70;25639;-89
2023/11/24 09:51:26;;;;;;;1.37;0.50;;;-0.10;99.90;;;;;;2027709;69;25334;-90
2023/11/24 09:54:17;;;;;;;0.90;0.50;;;0.00;99.90;;;;;;2031421;69;25226;-90
2023/11/24 09:57:06;;;;;;;3.27;0.47;;;0.00;99.90;;;;;;2037817;69;25187;-90
2023/11/24 09:59:54;;;;;;;0.50;0.50;;;0.00;99.90;;;;;;2039616;70;25176;-89
2023/11/24 10:02:43;;;;;;;0.83;0.50;;;0.10;99.90;;;;;;2033355;70;25676;-90
2023/11/24 10:05:33;;;;;;;1.30;0.40;;;0.20;99.90;;;;;;2035398;70;25214;-90
2023/11/24 10:08:22;;;;;;;0.50;0.50;;;0.20;99.90;;;;;;2038892;69;25158;-90
2023/11/24 10:11:14;;;;;;;0.67;0.40;;;0.20;99.90;;;;;;2037520;70;25217;-90
2023/11/24 10:14:04;;;;;;;0.47;0.33;;;0.30;99.90;;;;;;2022414;70;25260;-90
2023/11/24 10:19:35;;;;;;;0.40;0.40;;;0.30;99.90;;;;;;1905902;74;27135;-89
2023/11/24 10:22:29;;;;;;;0.40;0.40;;;0.30;99.90;;;;;;1857938;76;26448;-88
2023/11/24 10:28:07;;;;;;;2.00;1.03;;;0.30;99.90;;;;;;1927135;72;27146;-91
2023/11/24 10:30:56;;;;;;;0.53;0.50;;;0.30;99.90;;;;;;1900646;73;25736;-91
2023/11/24 10:33:45;;;;;;;0.73;0.50;;;0.40;99.90;;;;;;1911943;73;25641;-90
2023/11/24 10:36:37;;;;;;;0.43;0.40;;;0.40;99.90;;;;;;1896408;75;25328;-90
2023/11/24 10:39:30;;;;;;;1.20;0.70;;;0.50;99.90;;;;;;1909256;74;25291;-91
2023/11/24 10:42:20;;;;;;;3.47;1.13;;;0.50;99.90;;;;;;1888304;75;25228;-91
2023/11/24 10:45:11;;;;;;;0.60;0.57;;;0.50;99.90;;;;;;1922106;73;25745;-90
2023/11/24 10:51:02;;;;;;;0.30;0.30;;;0.50;99.90;;;;;;1945534;72;27010;-90
2023/11/24 10:53:56;;;;;;;0.97;0.57;;;0.50;99.90;;;;;;1925611;73;25271;-90
2023/11/24 10:56:49;;;;;;;0.57;0.57;;;0.50;99.90;;;;;;1918286;73;25234;-89
2023/11/24 10:59:41;;;;;;;1.67;0.87;;;0.50;99.90;;;;;;1917514;73;25300;-90
2023/11/24 11:05:17;;;;;;;0.40;0.40;;;0.50;99.90;;;;;;1919950;72;27113;-90
2023/11/24 11:11:49;;;;;;;4.80;1.37;;;0.60;99.90;;;;;;2016535;70;26386;-90
2023/11/24 11:14:37;;;;;;;0.60;0.60;;;0.60;99.90;;;;;;1921585;74;25186;-90
2023/11/24 11:17:26;;;;;;;3.00;0.50;;;0.60;99.90;;;;;;1955443;73;25265;-90
2023/11/24 11:20:22;;;;;;;1.23;0.77;;;0.60;99.90;;;;;;1995160;71;25843;-90
2023/11/24 11:23:05;;;;;;;0.80;0.80;;;0.70;99.90;;;;;;1987019;72;25212;-90
2023/11/24 11:25:54;;;;;;;1.10;0.70;;;0.70;99.90;;;;;;1989020;71;25187;-90
2023/11/24 11:28:45;;;;;;;1.27;0.60;;;0.60;99.90;;;;;;2005278;71;25270;-90
2023/11/24 11:34:20;;;;;;;1.00;0.60;;;0.60;99.90;;;;;;1941616;72;26902;-90
2023/11/24 11:37:11;;;;;;;1.00;0.70;;;0.60;99.90;;;;;;1920115;74;25181;-90
2023/11/24 11:43:12;;;;;;;2.27;0.70;;;0.60;99.90;;;;;;1944059;72;28222;-90
2023/11/24 11:48:55;;;;;;;5.33;0.67;;;0.50;99.90;;;;;;1940049;72;27159;-90
2023/11/24 11:51:46;;;;;;;0.87;0.50;;;0.60;99.90;;;;;;1923718;73;25314;-90
2023/11/24 11:54:36;;;;;;;2.57;0.73;;;0.60;99.90;;;;;;1920501;73;25900;-90
2023/11/24 11:57:27;;;;;;;1.43;0.50;;;0.60;99.90;;;;;;1920692;73;25223;-91
2023/11/24 12:00:16;;;;;;;0.53;0.50;;;0.60;99.90;;;;;;1924483;73;25928;-91
2023/11/24 12:03:28;;;;;;;0.33;0.33;;;0.70;99.90;;;;;;1941557;73;25866;-91
2023/11/24 12:06:17;;;;;;;1.47;0.80;;;0.60;99.90;;;;;;1924214;73;25167;-91
2023/11/24 12:09:08;;;;;;;0.40;0.40;;;0.60;99.90;;;;;;1921846;73;25345;-91
2023/11/24 12:12:20;;;;;;;4.80;0.40;;;0.60;99.90;;;;;;1928619;73;25229;-91
2023/11/24 12:15:10;;;;;;;0.50;0.50;;;0.50;99.90;;;;;;1919032;73;25277;-91
2023/11/24 12:17:59;;;;;;;5.57;0.53;;;0.40;99.90;;;;;;1930557;73;25883;-91
2023/11/24 12:20:50;;;;;;;0.67;0.47;;;0.40;99.90;;;;;;1940443;73;25730;-90
2023/11/24 12:23:39;;;;;;;2.27;0.53;;;0.50;99.90;;;;;;1926230;73;25172;-91
2023/11/24 12:26:28;;;;;;;0.93;0.50;;;0.50;99.90;;;;;;1922498;73;25213;-90
2023/11/24 12:32:06;;;;;;;5.30;0.90;;;0.50;99.90;;;;;;1970181;71;27564;-89
2023/11/24 12:34:57;;;;;;;0.30;0.30;;;0.60;99.90;;;;;;1910112;75;25761;-90
2023/11/24 12:37:46;;;;;;;0.53;0.53;;;0.60;99.90;;;;;;1914830;74;25704;-88
2023/11/24 12:40:35;;;;;;;0.67;0.60;;;0.70;99.90;;;;;;1898539;74;26183;-88
2023/11/24 12:43:24;;;;;;;2.13;0.47;;;0.70;99.90;;;;;;1912589;74;25311;-88
2023/11/24 12:46:21;;;;;;;2.97;0.57;;;0.70;99.90;;;;;;1937238;71;25221;-88
2023/11/24 12:49:10;;;;;;;0.50;0.50;;;0.70;99.90;;;;;;1929491;73;25144;-87
2023/11/24 12:51:58;;;;;;;0.63;0.60;;;0.60;99.90;;;;;;1923321;74;25807;-88
2023/11/24 12:54:47;;;;;;;2.23;0.57;;;0.60;99.90;;;;;;1915439;74;25344;-88
2023/11/24 12:57:36;;;;;;;3.80;0.67;;;0.60;99.90;;;;;;1925778;73;25679;-87
2023/11/24 13:00:27;;;;;;;0.67;0.43;;;0.60;99.90;;;;;;1925943;73;25214;-88
2023/11/24 13:03:15;;;;;;;5.50;0.70;;;0.50;99.90;;;;;;1928875;74;25232;-88
2023/11/24 13:06:05;;;;;;;0.40;0.40;;;0.50;99.90;;;;;;1928178;74;25248;-88
2023/11/24 13:08:54;;;;;;;5.67;0.70;;;0.40;99.90;;;;;;1939741;73;25203;-87
2023/11/24 13:11:43;;;;;;;0.93;0.43;;;0.40;99.90;;;;;;1924430;74;25705;-88
2023/11/24 13:14:33;;;;;;;1.13;0.77;;;0.40;99.90;;;;;;1935186;73;25209;-88
2023/11/24 13:17:21;;;;;;;0.47;0.47;;;0.30;99.90;;;;;;1924387;74;25185;-87
2023/11/24 13:22:49;;;;;;;10.27;0.90;;;0.30;99.90;;;;;;1935075;72;27516;-88
2023/11/24 13:25:37;;;;;;;0.90;0.63;;;0.30;99.90;;;;;;1860103;76;25309;-88
2023/11/24 13:28:29;;;;;;;0.93;0.60;;;0.30;99.90;;;;;;1866785;75;25289;-88
2023/11/24 13:31:17;;;;;;;1.70;0.50;;;0.30;99.90;;;;;;1841334;76;25878;-88
2023/11/24 13:34:05;;;;;;;4.20;0.60;;;0.30;99.90;;;;;;1874344;76;25233;-88
2023/11/24 13:36:55;;;;;;;1.03;0.63;;;0.30;99.90;;;;;;1868689;76;25189;-88
2023/11/24 13:39:45;;;;;;;1.77;0.60;;;0.40;99.90;;;;;;1879268;75;25712;-88
2023/11/24 13:42:34;;;;;;;0.87;0.60;;;0.40;99.90;;;;;;1880376;75;25820;-89
2023/11/24 13:45:33;;;;;;;1.07;0.47;;;0.30;99.90;;;;;;1848597;77;25269;-88
2023/11/24 13:51:04;;;;;;;2.23;0.80;;;0.30;99.90;;;;;;1949963;72;27057;-88
2023/11/24 13:53:53;;;;;;;2.57;0.70;;;0.40;99.90;;;;;;1913771;74;25245;-87
2023/11/24 13:56:42;;;;;;;0.53;0.50;;;0.40;99.90;;;;;;1900075;75;25295;-87
2023/11/24 13:59:31;;;;;;;0.20;0.20;;;0.40;99.90;;;;;;1894483;75;25227;-87
2023/11/24 14:05:06;;;;;;;1.67;1.00;;;0.40;99.90;;;;;;2039834;69;26998;-87
2023/11/24 14:07:54;;;;;;;0.67;0.60;;;0.30;99.90;;;;;;2012493;71;25351;-85
2023/11/24 14:10:43;;;;;;;2.07;0.70;;;0.40;99.90;;;;;;2001397;70;25144;-86
2023/11/24 14:13:31;;;;;;;0.87;0.50;;;0.40;99.90;;;;;;2009257;71;25296;-86
2023/11/24 14:16:21;;;;;;;2.47;0.70;;;0.30;99.90;;;;;;2016574;70;25279;-87
2023/11/24 14:19:10;;;;;;;0.97;0.60;;;0.30;99.90;;;;;;1993955;71;26382;-87
2023/11/24 14:22:00;;;;;;;2.23;0.80;;;0.40;99.90;;;;;;2015326;71;25317;-86
2023/11/24 14:24:49;;;;;;;0.77;0.60;;;0.40;99.90;;;;;;1962602;72;25699;-86
2023/11/24 14:27:40;;;;;;;3.20;1.03;;;0.40;99.90;;;;;;2009705;70;25185;-86
2023/11/24 14:30:32;;;;;;;2.37;0.80;;;0.40;99.90;;;;;;2003356;71;25326;-86
2023/11/24 14:33:18;;;;;;;1.60;0.60;;;0.40;99.90;;;;;;2006092;71;25355;-86
2023/11/24 14:36:10;;;;;;;1.43;0.70;;;0.40;99.90;;;;;;2004216;70;25667;-86
2023/11/24 14:38:59;;;;;;;4.90;0.70;;;0.40;99.90;;;;;;1951169;72;25296;-86
2023/11/24 14:41:49;;;;;;;1.13;0.60;;;0.50;99.90;;;;;;1997594;70;25698;-86
2023/11/24 14:44:40;;;;;;;0.60;0.60;;;0.50;99.90;;;;;;2003021;70;25198;-86
2023/11/24 14:50:10;;;;;;;0.93;0.60;;;0.60;99.90;;;;;;1935426;72;27095;-86
2023/11/24 14:52:58;;;;;;;1.37;0.53;;;0.50;99.90;;;;;;1896609;75;25650;-86
2023/11/24 14:55:47;;;;;;;0.87;0.43;;;0.50;99.90;;;;;;1887781;75;25220;-87
2023/11/24 14:58:36;;;;;;;0.70;0.53;;;0.50;99.90;;;;;;1899663;75;25168;-87
2023/11/24 15:01:30;;;;;;;3.63;0.83;;;0.60;99.90;;;;;;1887540;75;25263;-87
2023/11/24 15:04:15;;;;;;;0.57;0.57;;;0.50;99.90;;;;;;1893132;75;25230;-87
2023/11/24 15:07:07;;;;;;;2.70;1.00;;;0.50;99.90;;;;;;1909098;74;25167;-86
2023/11/24 15:09:54;;;;;;;3.17;0.73;;;0.60;99.90;;;;;;1904943;75;25186;-87
2023/11/24 15:12:47;;;;;;;0.97;0.40;;;0.50;99.90;;;;;;1893481;75;25930;-87
2023/11/24 15:15:33;;;;;;;2.40;0.60;;;0.50;99.90;;;;;;1884947;75;25621;-87
2023/11/24 15:18:22;;;;;;;0.50;0.50;;;0.50;99.90;;;;;;1903651;75;25176;-87
2023/11/24 15:21:28;;;;;;;1.07;0.70;;;0.50;99.90;;;;;;1897157;75;25335;-87
2023/11/24 15:24:04;;;;;;;3.50;0.60;;;0.40;99.90;;;;;;1898415;75;25210;-87
2023/11/24 15:26:53;;;;;;;1.80;0.53;;;0.40;99.90;;;;;;1908843;75;25217;-87
2023/11/24 15:29:41;;;;;;;0.47;0.40;;;0.50;99.90;;;;;;1900129;75;25777;-87
2023/11/24 15:32:30;;;;;;;1.17;0.90;;;0.40;99.90;;;;;;1892919;75;25331;-87
2023/11/24 15:35:19;;;;;;;2.37;0.77;;;0.40;99.90;;;;;;1901029;75;25209;-87
2023/11/24 15:40:53;;;;;;;3.73;1.53;;;0.30;99.90;;;;;;1962996;71;27164;-87
2023/11/24 15:43:44;;;;;;;10.10;4.03;;;0.30;99.90;;;;;;1925845;73;25268;-87
2023/11/24 15:46:33;;;;;;;2.30;0.90;;;0.30;99.90;;;;;;1896627;75;25314;-87
2023/11/24 15:49:22;;;;;;;1.70;0.60;;;0.20;99.90;;;;;;1866228;76;25297;-87
2023/11/24 15:52:12;;;;;;;3.93;0.80;;;0.20;99.90;;;;;;1862351;76;25179;-87
2023/11/24 15:55:01;;;;;;;1.63;0.70;;;0.20;99.90;;;;;;1867397;76;25165;-87
2023/11/24 15:57:49;;;;;;;3.90;1.03;;;0.20;99.90;;;;;;1873984;76;25187;-87
2023/11/24 16:00:40;;;;;;;17.63;0.80;;;0.30;99.90;;;;;;1893365;74;25247;-87
2023/11/24 16:03:29;;;;;;;4.63;0.80;;;0.40;99.90;;;;;;1859825;76;25265;-87
2023/11/24 16:06:20;;;;;;;5.73;1.53;;;0.40;99.90;;;;;;1866778;75;25202;-87
2023/11/24 16:09:10;;;;;;;1.70;0.70;;;0.40;99.90;;;;;;1860135;76;25548;-87
2023/11/24 16:12:01;;;;;;;5.73;1.07;;;0.50;99.90;;;;;;1888149;75;25746;-87
2023/11/24 16:14:49;;;;;;;1.00;0.57;;;0.50;99.90;;;;;;1867482;75;25753;-87
2023/11/24 16:17:38;;;;;;;1.83;0.90;;;0.50;99.90;;;;;;1880503;75;25806;-87
2023/11/24 16:23:10;;;;;;;0.50;0.50;;;0.60;99.90;;;;;;1918629;74;27105;-88
2023/11/24 16:26:00;;;;;;;2.30;0.73;;;0.60;99.90;;;;;;1862981;75;25246;-88
2023/11/24 16:28:54;;;;;;;2.17;1.03;;;0.60;99.90;;;;;;1865201;75;25327;-88
2023/11/24 16:32:06;;;;;;;21.27;1.63;;;0.60;99.90;;;;;;1861008;75;25175;-88
2023/11/24 16:34:58;;;;;;;2.17;0.97;;;0.60;99.90;;;;;;1861032;75;25992;-88
2023/11/24 16:37:47;;;;;;;2.00;1.00;;;0.50;99.90;;;;;;1867805;75;26514;-87
2023/11/24 16:40:36;;;;;;;0.80;0.70;;;0.50;99.90;;;;;;1877077;75;25887;-87
2023/11/24 16:43:25;;;;;;;4.27;1.00;;;0.60;99.90;;;;;;1869703;75;25846;-87
2023/11/24 16:46:13;;;;;;;1.90;0.50;;;0.60;99.90;;;;;;1867167;75;25823;-87
2023/11/24 16:49:02;;;;;;;2.43;1.00;;;0.50;99.90;;;;;;1872433;75;25270;-87
2023/11/24 16:51:52;;;;;;;5.73;1.20;;;0.50;99.90;;;;;;1884621;75;25246;-87
2023/11/24 16:54:40;;;;;;;5.03;1.37;;;0.50;99.90;;;;;;1897622;75;25739;-87
2023/11/24 16:57:31;;;;;;;3.93;2.23;;;0.50;99.90;;;;;;1868820;75;25324;-87
2023/11/24 17:00:21;;;;;;;4.47;1.00;;;0.50;99.90;;;;;;1864928;75;25616;-88
2023/11/24 17:05:49;;;;;;;0.77;0.77;;;0.50;99.90;;;;;;2013304;69;27039;-86
2023/11/24 17:08:39;;;;;;;3.23;0.93;;;0.50;99.90;;;;;;1913826;73;25315;-86
2023/11/24 17:14:18;;;;;;;1.80;1.30;;;0.50;99.90;;;;;;1936646;72;27041;-87
2023/11/24 17:17:06;;;;;;;2.57;0.97;;;0.60;99.90;;;;;;1902675;75;25318;-87
2023/11/24 17:19:55;;;;;;;4.13;1.50;;;0.50;99.90;;;;;;1894388;75;25309;-87
2023/11/24 17:22:44;;;;;;;1.00;0.97;;;0.50;99.90;;;;;;1881510;75;25688;-87
2023/11/24 17:25:32;;;;;;;4.30;1.27;;;0.50;99.90;;;;;;1912573;75;25167;-87
2023/11/24 17:28:21;;;;;;;5.50;1.57;;;0.40;99.90;;;;;;1899450;75;25299;-86
2023/11/24 17:31:11;;;;;;;2.60;0.93;;;0.40;99.90;;;;;;1891849;75;25711;-86
2023/11/24 17:34:00;;;;;;;8.93;2.13;;;0.40;99.90;;;;;;1890940;75;25262;-86
2023/11/24 17:36:49;;;;;;;4.17;0.97;;;0.40;99.90;;;;;;1892600;73;25318;-87
2023/11/24 17:42:23;;;;;;;0.90;0.90;;;0.30;99.90;;;;;;1929622;72;27013;-88
2023/11/24 17:47:53;;;;;;;1.73;0.90;;;0.20;99.90;;;;;;1919607;72;27092;-87
2023/11/24 17:53:22;;;;;;;2.33;0.90;;;0.20;99.90;;;;;;1941785;72;27037;-88
2023/11/24 17:56:11;;;;;;;1.80;0.77;;;0.10;99.90;;;;;;1849493;77;25207;-88
2023/11/24 17:58:59;;;;;;;5.10;1.20;;;0.10;99.90;;;;;;1887373;75;25212;-88
2023/11/24 18:01:50;;;;;;;2.60;1.37;;;0.10;99.90;;;;;;1891762;75;25457;-89
2023/11/24 18:04:39;;;;;;;2.90;1.23;;;0.00;99.90;;;;;;1892235;75;25313;-90
2023/11/24 18:07:28;;;;;;;3.40;1.37;;;-0.10;99.90;;;;;;1883740;75;25223;-90
2023/11/24 18:10:18;;;;;;;2.77;1.57;;;0.00;99.90;;;;;;1898138;75;25223;-90
2023/11/24 18:13:07;;;;;;;4.00;1.60;;;0.00;99.90;;;;;;1897389;75;25234;-90
2023/11/24 18:15:55;;;;;;;8.03;1.57;;;0.00;99.90;;;;;;1832233;76;25223;-90
2023/11/24 18:18:43;;;;;;;5.90;2.17;;;0.00;99.90;;;;;;1893312;75;25173;-90
2023/11/24 18:21:31;;;;;;;4.77;1.40;;;0.00;99.90;;;;;;1898516;75;25654;-90
2023/11/24 18:24:20;;;;;;;6.40;2.10;;;0.00;99.90;;;;;;1893485;73;25246;-90
2023/11/24 18:27:09;;;;;;;4.13;1.20;;;-0.10;99.90;;;;;;1905500;75;25706;-89
2023/11/24 18:32:37;;;;;;;6.60;1.90;;;-0.20;99.90;;;;;;1931419;72;27718;-90
2023/11/24 18:38:12;;;;;;;6.33;1.43;;;-0.30;99.90;;;;;;1953417;72;27505;-90
2023/11/24 18:41:01;;;;;;;5.37;1.47;;;-0.30;99.90;;;;;;1905953;73;25225;-90
2023/11/24 18:46:30;;;;;;;5.53;1.60;;;-0.30;99.90;;;;;;1893221;74;27071;-90
2023/11/24 18:49:20;;;;;;;3.27;1.40;;;-0.30;99.90;;;;;;1872231;76;25305;-90
2023/11/24 18:52:08;;;;;;;4.50;1.47;;;-0.20;99.90;;;;;;1861672;76;25253;-89
2023/11/24 18:57:45;;;;;;;6.60;1.90;;;-0.20;99.90;;;;;;1989216;71;27062;-89
2023/11/24 19:00:32;;;;;;;4.87;1.80;;;-0.20;99.90;;;;;;1938881;73;25272;-90
2023/11/24 19:06:12;;;;;;;6.47;2.10;;;-0.20;99.90;;;;;;1948431;72;26993;-89
2023/11/24 19:09:00;;;;;;;4.53;1.70;;;-0.20;99.90;;;;;;1921576;72;25264;-90
2023/11/24 19:24:54;;;;;;;1.93;1.43;;;-0.10;99.90;;;;;;1841648;76;27122;-90
2023/11/24 19:30:34;;;;;;;6.87;1.60;;;-0.20;99.90;;;;;;1956568;72;27069;-90
2023/11/24 19:36:10;;;;;;;1.70;1.20;;;-0.20;99.90;;;;;;1951424;72;27527;-90
2023/11/24 19:38:59;;;;;;;7.40;1.90;;;-0.20;99.90;;;;;;1921889;73;25340;-90
2023/11/24 19:44:40;;;;;;;6.87;1.40;;;-0.20;99.90;;;;;;1954362;72;27074;-89
2023/11/24 19:50:43;;;;;;;8.97;1.50;;;-0.20;99.90;;;;;;1974161;71;26457;-90
2023/11/24 19:53:32;;;;;;;2.97;0.87;;;-0.20;99.90;;;;;;1996815;70;25162;-90
2023/11/24 19:56:21;;;;;;;3.87;1.40;;;-0.10;99.90;;;;;;1999121;70;25144;-90
2023/11/24 19:59:09;;;;;;;4.07;1.40;;;-0.10;99.90;;;;;;1998596;70;25640;-90
2023/11/24 20:01:58;;;;;;;5.20;1.40;;;-0.20;99.90;;;;;;1991947;70;25252;-90
2023/11/24 20:04:47;;;;;;;3.17;1.53;;;-0.20;99.90;;;;;;1974816;70;25251;-90
2023/11/24 20:07:35;;;;;;;7.40;1.63;;;-0.10;99.90;;;;;;1977594;70;25336;-90
2023/11/24 20:10:25;;;;;;;9.13;1.67;;;-0.10;99.90;;;;;;1978794;71;25779;-89
2023/11/24 20:13:14;;;;;;;7.67;1.40;;;-0.10;99.90;;;;;;1980982;70;25269;-90
2023/11/24 20:16:03;;;;;;;9.93;3.10;;;-0.10;99.90;;;;;;1982406;70;25158;-90